Berit — 5BLR3 — position and weather

sailwx.info

Track history (hours):
 
Tides and Currents Weather Stations Pressure Air Temp Water Temp Dewpoint Dewpoint Depression Visibility Wind Speed Wind Dir Waves Ship Positions

Berit

Last reported at 2017-Oct-19 23:30 UTC. Time now 2017-Oct-19 23:55 UTC.
Position N 53°31' W 003°37'.

Length 135 m; draft 6.9 m.

Type: Cargo ship. MMSI: 209176832.

Date/timePositionNaut miles runAvg speedWind from/ knotsBaromVisibWave heightAir tempDewpointWater temp
2017-Oct-19 23:30N 53°31' W 003°37'4 8.8
2017-Oct-19 23:00N 53°30' W 003°45'5 9.8
2017-Oct-19 22:30N 53°30' W 003°53'5 9.9
2017-Oct-19 21:57N 53°31' W 004°02'87617.7
2017-Oct-17 20:30N 39°28' W 009°51'917.6
2017-Oct-17 20:00N 39°20' W 009°52'917.5
2017-Oct-17 19:30N 39°11' W 009°52'917.3
2017-Oct-17 19:00N 39°02' W 009°52'917.6
2017-Oct-17 18:30N 38°53' W 009°52'917.7
2017-Oct-17 18:00N 38°45' W 009°51'816.7
2017-Oct-17 17:30N 38°37' W 009°48'917.5
2017-Oct-17 17:00N 38°32' W 009°39'917.7
2017-Oct-17 16:30N 38°26' W 009°30'917.8
2017-Oct-17 16:00N 38°21' W 009°20'917.5
2017-Oct-17 15:30N 38°22' W 009°09'918.0
2017-Oct-17 15:00N 38°26' W 008°59'611.8
2017-Oct-17 14:30N 38°31' W 008°54'2 3.0
2017-Oct-17 13:58N 38°31' W 008°52'0 0.0
2017-Oct-17 13:28N 38°31' W 008°52'0 0.0
2017-Oct-17 12:58N 38°31' W 008°52'0 0.0
2017-Oct-17 12:28N 38°31' W 008°52'0 0.0
2017-Oct-17 11:58N 38°31' W 008°52'0 0.0
2017-Oct-17 11:28N 38°31' W 008°52'0 0.0
2017-Oct-17 10:55N 38°31' W 008°52'0 0.0
2017-Oct-17 10:28N 38°31' W 008°52'0 0.0
2017-Oct-17 09:55N 38°31' W 008°52'0 0.0
2017-Oct-17 09:28N 38°31' W 008°52'0 0.0
2017-Oct-17 08:58N 38°31' W 008°52'0 0.0
2017-Oct-17 08:28N 38°31' W 008°52'0 0.0
2017-Oct-17 07:55N 38°31' W 008°52'0 0.0
2017-Oct-17 07:22N 38°31' W 008°52'0 0.0
2017-Oct-17 06:58N 38°31' W 008°52'0 0.0
2017-Oct-17 06:25N 38°31' W 008°52'0 0.0
2017-Oct-17 05:58N 38°31' W 008°52'0 0.0
2017-Oct-17 05:28N 38°31' W 008°52'0 0.0
2017-Oct-17 04:55N 38°31' W 008°52'0 0.0
2017-Oct-17 04:28N 38°31' W 008°52'0 0.0
2017-Oct-17 03:58N 38°31' W 008°52'0 0.0
2017-Oct-17 03:16N 38°31' W 008°52'0 0.0
2017-Oct-17 02:55N 38°31' W 008°52'0 0.0
2017-Oct-17 02:28N 38°31' W 008°52'0 0.0
2017-Oct-17 01:58N 38°31' W 008°52'0 0.0
2017-Oct-17 01:31N 38°31' W 008°52'0 0.0
2017-Oct-17 01:01N 38°31' W 008°52'0 0.0
2017-Oct-17 00:30N 38°31' W 008°52'0 0.0
2017-Oct-17 00:00N 38°31' W 008°52'0 0.0
2017-Oct-16 23:30N 38°31' W 008°52'0 0.0
2017-Oct-16 23:00N 38°31' W 008°52'0 0.0
2017-Oct-16 22:27N 38°31' W 008°52'0 0.0
2017-Oct-16 22:00N 38°31' W 008°52'0 0.0
2017-Oct-16 21:30N 38°31' W 008°52'2 4.0
2017-Oct-16 20:56N 38°30' W 008°55'410.3
2017-Oct-16 20:31N 38°27' W 008°59'714.9
2017-Oct-16 20:00N 38°19' W 009°00'918.5
2017-Oct-16 19:31N 38°10' W 008°59'917.9
2017-Oct-16 19:00N 38°01' W 008°57'816.1
2017-Oct-16 18:31N 37°54' W 008°52'2 3.1
2017-Oct-16 17:56N 37°56' W 008°51'0 0.0
2017-Oct-16 17:20N 37°56' W 008°51'0 0.0
2017-Oct-16 16:56N 37°56' W 008°51'0 0.0
2017-Oct-16 16:29N 37°56' W 008°51'0 0.0
2017-Oct-16 15:59N 37°56' W 008°51'0 0.0
2017-Oct-16 15:29N 37°56' W 008°51'0 0.0
2017-Oct-16 14:59N 37°56' W 008°51'0 0.0
2017-Oct-16 14:29N 37°56' W 008°51'0 0.0
2017-Oct-16 13:29N 37°56' W 008°51'0 0.0
2017-Oct-16 12:59N 37°56' W 008°51'0 0.0
2017-Oct-16 12:29N 37°56' W 008°51'0 0.0
2017-Oct-16 11:59N 37°56' W 008°51'0 0.0
2017-Oct-16 11:29N 37°56' W 008°51'0 0.0
2017-Oct-16 10:56N 37°56' W 008°51'0 0.0
2017-Oct-16 10:30N 37°56' W 008°51'1 2.6
2017-Oct-16 10:00N 37°55' W 008°51'2 4.8
2017-Oct-16 09:30N 37°55' W 008°54'5 9.9
2017-Oct-16 09:01N 37°59' W 008°58'917.8
2017-Oct-16 08:30N 38°05' W 009°05'918.0
2017-Oct-16 08:00N 38°12' W 009°13'918.0
2017-Oct-16 07:30N 38°19' W 009°20'917.6
2017-Oct-16 07:01N 38°25' W 009°28'917.7
2017-Oct-16 06:30N 38°32' W 009°35'917.7
2017-Oct-16 06:00N 38°39' W 009°42'918.0
2017-Oct-16 05:30N 38°48' W 009°43'917.8
2017-Oct-16 05:00N 38°57' W 009°44'918.0
2017-Oct-16 04:30N 39°06' W 009°45'918.4
2017-Oct-16 04:00N 39°15' W 009°45'918.4
2017-Oct-16 03:31N 39°24' W 009°43'10917.0
2017-Oct-15 21:05N 41°04' W 008°46'117.6
2017-Oct-15 21:00N 41°06' W 008°46'611.8
2017-Oct-15 20:31N 41°11' W 008°42'1 1.4
2017-Oct-15 19:45N 41°12' W 008°41'0 0.0
2017-Oct-15 19:27N 41°12' W 008°41'0 0.0
2017-Oct-15 18:42N 41°12' W 008°41'0 0.0
2017-Oct-15 18:27N 41°12' W 008°41'0 0.0
2017-Oct-15 17:57N 41°12' W 008°41'0 0.0
2017-Oct-15 17:24N 41°12' W 008°41'0 0.0
2017-Oct-15 16:51N 41°12' W 008°41'0 0.0
2017-Oct-15 15:45N 41°12' W 008°41'0 0.0
2017-Oct-15 15:09N 41°12' W 008°41'0 0.0
2017-Oct-15 15:00N 41°12' W 008°41'0 0.0
2017-Oct-15 13:51N 41°12' W 008°41'0 0.0
2017-Oct-15 13:21N 41°12' W 008°41'0 0.0
2017-Oct-15 13:00N 41°12' W 008°41'0 0.0
2017-Oct-15 12:24N 41°12' W 008°41'0 0.0
2017-Oct-15 12:00N 41°12' W 008°41'0 0.0
2017-Oct-15 11:27N 41°12' W 008°41'0 0.0
2017-Oct-15 10:56N 41°12' W 008°41'1 2.1
2017-Oct-15 10:30N 41°11' W 008°42'3 5.4
2017-Oct-15 10:00N 41°09' W 008°45'713.6
2017-Oct-15 09:30N 41°14' W 008°50'21415.5
2017-Oct-14 19:44N 44°48' W 008°57'1817.7
2017-Oct-14 18:43N 45°05' W 008°46'418.1
2017-Oct-14 18:31N 45°08' W 008°44'19017.4
2017-Oct-14 07:35N 47°56' W 006°34'716.9
2017-Oct-14 07:09N 48°02' W 006°28'317.3
2017-Oct-14 07:00N 48°05' W 006°27'1017.5
2017-Oct-14 06:26N 48°13' W 006°20'1017.5
2017-Oct-14 05:53N 48°21' W 006°12'1017.6
2017-Oct-14 05:18N 48°30' W 006°05'2517.9
2017-Oct-14 03:56N 48°53' W 005°49'716.7
2017-Oct-14 03:30N 48°57' W 005°41'917.3
2017-Oct-14 02:59N 49°01' W 005°28'1017.2
2017-Oct-14 02:25N 49°06' W 005°16'717.2
2017-Oct-14 02:00N 49°10' W 005°06'1716.7
2017-Oct-14 00:57N 49°19' W 004°43'816.3
2017-Oct-14 00:26N 49°23' W 004°32'816.3
2017-Oct-13 23:56N 49°28' W 004°22'1016.0
2017-Oct-13 23:20N 49°33' W 004°09'516.2
2017-Oct-13 23:00N 49°36' W 004°02'816.2
2017-Oct-13 22:30N 49°39' W 003°51'816.7
2017-Oct-13 22:00N 49°44' W 003°40'917.3
2017-Oct-13 21:30N 49°48' W 003°28'917.7
2017-Oct-13 21:00N 49°52' W 003°16'918.1
2017-Oct-13 20:30N 49°56' W 003°04'918.6
2017-Oct-13 20:00N 50°00' W 002°51'1819.0
2017-Oct-13 19:05N 50°06' W 002°25'419.0
2017-Oct-13 18:51N 50°07' W 002°18'719.1
2017-Oct-13 18:29N 50°09' W 002°08'3218.0
2017-Oct-13 16:43N 50°17' W 001°20'417.1
2017-Oct-13 16:30N 50°18' W 001°14'816.4
2017-Oct-13 16:00N 50°20' W 001°02'915.9
2017-Oct-13 15:27N 50°23' W 000°49'715.4
2017-Oct-13 15:00N 50°24' W 000°38'815.6
2017-Oct-13 14:30N 50°25' W 000°26'815.8
2017-Oct-13 14:00N 50°27' W 000°14'815.8
2017-Oct-13 13:30N 50°28' W 000°01'816.0
2017-Oct-13 13:00N 50°30' E 000°11'816.3
2017-Oct-13 12:30N 50°32' E 000°23'816.9
2017-Oct-13 12:00N 50°35' E 000°36'917.2
2017-Oct-13 11:30N 50°40' E 000°46'917.5
2017-Oct-13 11:00N 50°46' E 000°57'1017.6
2017-Oct-13 10:28N 50°53' E 001°07'817.4
2017-Oct-13 10:00N 50°58' E 001°16'816.8
2017-Oct-13 09:30N 51°03' E 001°27'816.2
2017-Oct-13 09:00N 51°08' E 001°37'815.8
2017-Oct-13 08:30N 51°13' E 001°46'815.6
2017-Oct-13 08:00N 51°20' E 001°54'714.7
2017-Oct-13 07:30N 51°25' E 002°02'816.7
2017-Oct-13 07:00N 51°21' E 002°15'815.4
2017-Oct-13 06:30N 51°22' E 002°27'815.8
2017-Oct-13 06:00N 51°23' E 002°39'713.2
2017-Oct-13 05:30N 51°22' E 002°50'715.0
2017-Oct-13 05:00N 51°24' E 003°02'714.5
2017-Oct-13 04:30N 51°24' E 003°13'714.8
2017-Oct-13 04:00N 51°25' E 003°25'713.3
2017-Oct-13 03:30N 51°26' E 003°35'4 8.9
2017-Oct-13 03:00N 51°25' E 003°42'713.2
2017-Oct-13 02:30N 51°21' E 003°50'713.1
2017-Oct-13 02:00N 51°25' E 003°58'511.0
2017-Oct-13 01:31N 51°22' E 004°05'510.8
2017-Oct-13 01:00N 51°22' E 004°14'4 7.3
2017-Oct-13 00:29N 51°18' E 004°16'0 0.1
2017-Oct-12 23:59N 51°18' E 004°16'0 0.0
2017-Oct-12 23:29N 51°18' E 004°16'0 0.0
2017-Oct-12 22:53N 51°18' E 004°16'0 0.0
2017-Oct-12 22:29N 51°18' E 004°16'0 0.0
2017-Oct-12 21:59N 51°18' E 004°16'0 0.0
2017-Oct-12 21:29N 51°18' E 004°16'0 0.0
2017-Oct-12 20:59N 51°18' E 004°16'0 0.0
2017-Oct-12 20:26N 51°18' E 004°16'0 0.0
2017-Oct-12 19:59N 51°18' E 004°16'0 0.0
2017-Oct-12 19:29N 51°18' E 004°16'0 0.0
2017-Oct-12 18:59N 51°18' E 004°16'0 0.0
2017-Oct-12 18:26N 51°18' E 004°16'0 0.0
2017-Oct-12 17:59N 51°18' E 004°16'0 0.0
2017-Oct-12 17:29N 51°18' E 004°16'0 0.0
2017-Oct-12 16:59N 51°18' E 004°16'0 0.0
2017-Oct-12 16:29N 51°18' E 004°16'0 0.0
2017-Oct-12 15:56N 51°18' E 004°16'0 0.0
2017-Oct-12 15:29N 51°18' E 004°16'0 0.0
2017-Oct-12 14:59N 51°18' E 004°16'0 0.0
2017-Oct-12 14:29N 51°18' E 004°16'0 0.0
2017-Oct-12 13:59N 51°18' E 004°16'0 0.0
2017-Oct-12 13:29N 51°18' E 004°16'0 0.0
2017-Oct-12 12:56N 51°18' E 004°16'0 0.0
2017-Oct-12 12:29N 51°18' E 004°16'0 0.0
2017-Oct-12 11:59N 51°18' E 004°16'0 0.0
2017-Oct-12 11:31N 51°18' E 004°16'0 0.1
2017-Oct-12 11:00N 51°18' E 004°16'4 7.6
2017-Oct-12 10:30N 51°22' E 004°14'4 8.9
2017-Oct-12 10:00N 51°22' E 004°07'510.6
2017-Oct-12 09:30N 51°26' E 004°01'611.6
2017-Oct-12 09:00N 51°22' E 003°54'611.5
2017-Oct-12 08:30N 51°22' E 003°45'612.1
2017-Oct-12 08:01N 51°26' E 003°39'510.8
2017-Oct-12 07:31N 51°25' E 003°30'714.5
2017-Oct-12 07:00N 51°24' E 003°19'815.5
2017-Oct-12 06:30N 51°24' E 003°06'815.5
2017-Oct-12 06:00N 51°22' E 002°54'713.2
2017-Oct-12 05:29N 51°23' E 002°43'510.8
2017-Oct-12 05:00N 51°22' E 002°35'2 3.6
2017-Oct-12 04:30N 51°20' E 002°33'0 0.1
2017-Oct-12 03:48N 51°20' E 002°33'0 0.0
2017-Oct-12 03:30N 51°20' E 002°33'0 0.0
2017-Oct-12 03:00N 51°20' E 002°33'0 0.0
2017-Oct-12 02:26N 51°20' E 002°33'0 0.0
2017-Oct-12 01:53N 51°20' E 002°33'0 0.1
2017-Oct-12 01:29N 51°20' E 002°33'0 0.1
2017-Oct-12 00:51N 51°20' E 002°33'0 0.0
2017-Oct-12 00:26N 51°20' E 002°33'0 0.1
2017-Oct-11 23:38N 51°20' E 002°33'0 0.0
2017-Oct-11 23:14N 51°20' E 002°33'0 0.2
2017-Oct-11 22:59N 51°20' E 002°33'0 0.1
2017-Oct-11 22:29N 51°20' E 002°33'1 0.5
2017-Oct-11 21:16N 51°21' E 002°33'1 4.9
2017-Oct-11 21:00N 51°22' E 002°31'4 8.5
2017-Oct-11 20:30N 51°21' E 002°25'510.1
2017-Oct-11 20:00N 51°19' E 002°17'5 9.4
2017-Oct-11 19:30N 51°19' E 002°10'4 8.4
2017-Oct-11 19:00N 51°21' E 002°04'5 9.2
2017-Oct-11 18:30N 51°24' E 001°58'4 8.9
2017-Oct-11 18:00N 51°27' E 001°53'3 6.6
2017-Oct-11 17:30N 51°30' E 001°50'4 7.1
2017-Oct-11 17:00N 51°30' E 001°44'11 0.6
2017-Oct-11 00:00N 51°26' E 001°29'3 6.6
2017-Oct-10 23:30N 51°24' E 001°33'2 4.8
2017-Oct-10 23:00N 51°26' E 001°33'2 4.9
2017-Oct-10 22:30N 51°28' E 001°35'3 5.9
2017-Oct-10 22:00N 51°30' E 001°39'510.1
2017-Oct-10 21:30N 51°34' E 001°45'510.6
2017-Oct-10 21:00N 51°37' E 001°51'611.1
2017-Oct-10 20:30N 51°40' E 001°60'510.9
2017-Oct-10 20:00N 51°43' E 002°07'3510.8
2017-Oct-10 16:44N 52°01' E 002°55'311.0
2017-Oct-10 16:29N 52°02' E 002°60'510.9
2017-Oct-10 16:00N 52°02' E 003°08'510.8
2017-Oct-10 15:30N 52°03' E 003°17'510.5
2017-Oct-10 14:59N 52°03' E 003°26'1111.5
2017-Oct-10 14:00N 52°03' E 003°44'510.9
2017-Oct-10 13:30N 52°03' E 003°53'713.4
2017-Oct-10 13:00N 51°60' E 004°02'714.9
2017-Oct-10 12:30N 51°56' E 004°13'510.9
2017-Oct-10 12:00N 51°54' E 004°21'3 5.8
2017-Oct-10 11:29N 51°53' E 004°26'0 0.0
2017-Oct-10 10:59N 51°53' E 004°26'0 0.0
2017-Oct-10 10:29N 51°53' E 004°26'0 0.0
2017-Oct-10 09:59N 51°53' E 004°26'0 0.0
2017-Oct-10 09:29N 51°53' E 004°26'0 0.0
2017-Oct-10 08:59N 51°53' E 004°26'0 0.0
2017-Oct-10 08:29N 51°53' E 004°26'0 0.0
2017-Oct-10 07:59N 51°53' E 004°26'0 0.0
2017-Oct-10 07:29N 51°53' E 004°26'0 0.0
2017-Oct-10 06:59N 51°53' E 004°26'0 0.0
2017-Oct-10 06:29N 51°53' E 004°26'0 0.0
2017-Oct-10 05:59N 51°53' E 004°26'0 0.0
2017-Oct-10 05:29N 51°53' E 004°26'0 0.0
2017-Oct-10 04:59N 51°53' E 004°26'0 0.0
2017-Oct-10 04:29N 51°53' E 004°26'0 0.0
2017-Oct-10 03:59N 51°53' E 004°26'0 0.3
2017-Oct-10 03:28N 51°53' E 004°26'0 0.0
2017-Oct-10 02:58N 51°53' E 004°26'0 0.0
2017-Oct-10 02:28N 51°53' E 004°26'0 0.0
2017-Oct-10 01:58N 51°53' E 004°26'0 0.0
2017-Oct-10 01:30N 51°53' E 004°26'0 0.8
2017-Oct-10 01:00N 51°54' E 004°26'2 4.4
2017-Oct-10 00:30N 51°54' E 004°23'5 9.9
2017-Oct-10 00:00N 51°55' E 004°15'611.9
2017-Oct-09 23:30N 51°58' E 004°07'  
Track history (hours):
 
Tides and Currents Weather Stations Pressure Air Temp Water Temp Dewpoint Dewpoint Depression Visibility Wind Speed Wind Dir Waves Ship Positions

Berit

Last reported at 2017-Oct-19 23:30 UTC. Time now 2017-Oct-19 23:55 UTC.
Position N 53°31' W 003°37'.

Length 135 m; draft 6.9 m.

Type: Cargo ship. MMSI: 209176832.

Date/timePositionNaut miles runAvg speedWind from/ knotsBaromVisibWave heightAir tempDewpointWater temp
2017-Oct-19 23:30N 53°31' W 003°37'4 8.8
2017-Oct-19 23:00N 53°30' W 003°45'5 9.8
2017-Oct-19 22:30N 53°30' W 003°53'5 9.9
2017-Oct-19 21:57N 53°31' W 004°02'87617.7
2017-Oct-17 20:30N 39°28' W 009°51'917.6
2017-Oct-17 20:00N 39°20' W 009°52'917.5
2017-Oct-17 19:30N 39°11' W 009°52'917.3
2017-Oct-17 19:00N 39°02' W 009°52'917.6
2017-Oct-17 18:30N 38°53' W 009°52'917.7
2017-Oct-17 18:00N 38°45' W 009°51'816.7
2017-Oct-17 17:30N 38°37' W 009°48'917.5
2017-Oct-17 17:00N 38°32' W 009°39'917.7
2017-Oct-17 16:30N 38°26' W 009°30'917.8
2017-Oct-17 16:00N 38°21' W 009°20'917.5
2017-Oct-17 15:30N 38°22' W 009°09'918.0
2017-Oct-17 15:00N 38°26' W 008°59'611.8
2017-Oct-17 14:30N 38°31' W 008°54'2 3.0
2017-Oct-17 13:58N 38°31' W 008°52'0 0.0
2017-Oct-17 13:28N 38°31' W 008°52'0 0.0
2017-Oct-17 12:58N 38°31' W 008°52'0 0.0
2017-Oct-17 12:28N 38°31' W 008°52'0 0.0
2017-Oct-17 11:58N 38°31' W 008°52'0 0.0
2017-Oct-17 11:28N 38°31' W 008°52'0 0.0
2017-Oct-17 10:55N 38°31' W 008°52'0 0.0
2017-Oct-17 10:28N 38°31' W 008°52'0 0.0
2017-Oct-17 09:55N 38°31' W 008°52'0 0.0
2017-Oct-17 09:28N 38°31' W 008°52'0 0.0
2017-Oct-17 08:58N 38°31' W 008°52'0 0.0
2017-Oct-17 08:28N 38°31' W 008°52'0 0.0
2017-Oct-17 07:55N 38°31' W 008°52'0 0.0
2017-Oct-17 07:22N 38°31' W 008°52'0 0.0
2017-Oct-17 06:58N 38°31' W 008°52'0 0.0
2017-Oct-17 06:25N 38°31' W 008°52'0 0.0
2017-Oct-17 05:58N 38°31' W 008°52'0 0.0
2017-Oct-17 05:28N 38°31' W 008°52'0 0.0
2017-Oct-17 04:55N 38°31' W 008°52'0 0.0
2017-Oct-17 04:28N 38°31' W 008°52'0 0.0
2017-Oct-17 03:58N 38°31' W 008°52'0 0.0
2017-Oct-17 03:16N 38°31' W 008°52'0 0.0
2017-Oct-17 02:55N 38°31' W 008°52'0 0.0
2017-Oct-17 02:28N 38°31' W 008°52'0 0.0
2017-Oct-17 01:58N 38°31' W 008°52'0 0.0
2017-Oct-17 01:31N 38°31' W 008°52'0 0.0
2017-Oct-17 01:01N 38°31' W 008°52'0 0.0
2017-Oct-17 00:30N 38°31' W 008°52'0 0.0
2017-Oct-17 00:00N 38°31' W 008°52'0 0.0
2017-Oct-16 23:30N 38°31' W 008°52'0 0.0
2017-Oct-16 23:00N 38°31' W 008°52'0 0.0
2017-Oct-16 22:27N 38°31' W 008°52'0 0.0
2017-Oct-16 22:00N 38°31' W 008°52'0 0.0
2017-Oct-16 21:30N 38°31' W 008°52'2 4.0
2017-Oct-16 20:56N 38°30' W 008°55'410.3
2017-Oct-16 20:31N 38°27' W 008°59'714.9
2017-Oct-16 20:00N 38°19' W 009°00'918.5
2017-Oct-16 19:31N 38°10' W 008°59'917.9
2017-Oct-16 19:00N 38°01' W 008°57'816.1
2017-Oct-16 18:31N 37°54' W 008°52'2 3.1
2017-Oct-16 17:56N 37°56' W 008°51'0 0.0
2017-Oct-16 17:20N 37°56' W 008°51'0 0.0
2017-Oct-16 16:56N 37°56' W 008°51'0 0.0
2017-Oct-16 16:29N 37°56' W 008°51'0 0.0
2017-Oct-16 15:59N 37°56' W 008°51'0 0.0
2017-Oct-16 15:29N 37°56' W 008°51'0 0.0
2017-Oct-16 14:59N 37°56' W 008°51'0 0.0
2017-Oct-16 14:29N 37°56' W 008°51'0 0.0
2017-Oct-16 13:29N 37°56' W 008°51'0 0.0
2017-Oct-16 12:59N 37°56' W 008°51'0 0.0
2017-Oct-16 12:29N 37°56' W 008°51'0 0.0
2017-Oct-16 11:59N 37°56' W 008°51'0 0.0
2017-Oct-16 11:29N 37°56' W 008°51'0 0.0
2017-Oct-16 10:56N 37°56' W 008°51'0 0.0
2017-Oct-16 10:30N 37°56' W 008°51'1 2.6
2017-Oct-16 10:00N 37°55' W 008°51'2 4.8
2017-Oct-16 09:30N 37°55' W 008°54'5 9.9
2017-Oct-16 09:01N 37°59' W 008°58'917.8
2017-Oct-16 08:30N 38°05' W 009°05'918.0
2017-Oct-16 08:00N 38°12' W 009°13'918.0
2017-Oct-16 07:30N 38°19' W 009°20'917.6
2017-Oct-16 07:01N 38°25' W 009°28'917.7
2017-Oct-16 06:30N 38°32' W 009°35'917.7
2017-Oct-16 06:00N 38°39' W 009°42'918.0
2017-Oct-16 05:30N 38°48' W 009°43'917.8
2017-Oct-16 05:00N 38°57' W 009°44'918.0
2017-Oct-16 04:30N 39°06' W 009°45'918.4
2017-Oct-16 04:00N 39°15' W 009°45'918.4
2017-Oct-16 03:31N 39°24' W 009°43'10917.0
2017-Oct-15 21:05N 41°04' W 008°46'117.6
2017-Oct-15 21:00N 41°06' W 008°46'611.8
2017-Oct-15 20:31N 41°11' W 008°42'1 1.4
2017-Oct-15 19:45N 41°12' W 008°41'0 0.0
2017-Oct-15 19:27N 41°12' W 008°41'0 0.0
2017-Oct-15 18:42N 41°12' W 008°41'0 0.0
2017-Oct-15 18:27N 41°12' W 008°41'0 0.0
2017-Oct-15 17:57N 41°12' W 008°41'0 0.0
2017-Oct-15 17:24N 41°12' W 008°41'0 0.0
2017-Oct-15 16:51N 41°12' W 008°41'0 0.0
2017-Oct-15 15:45N 41°12' W 008°41'0 0.0
2017-Oct-15 15:09N 41°12' W 008°41'0 0.0
2017-Oct-15 15:00N 41°12' W 008°41'0 0.0
2017-Oct-15 13:51N 41°12' W 008°41'0 0.0
2017-Oct-15 13:21N 41°12' W 008°41'0 0.0
2017-Oct-15 13:00N 41°12' W 008°41'0 0.0
2017-Oct-15 12:24N 41°12' W 008°41'0 0.0
2017-Oct-15 12:00N 41°12' W 008°41'0 0.0
2017-Oct-15 11:27N 41°12' W 008°41'0 0.0
2017-Oct-15 10:56N 41°12' W 008°41'1 2.1
2017-Oct-15 10:30N 41°11' W 008°42'3 5.4
2017-Oct-15 10:00N 41°09' W 008°45'713.6
2017-Oct-15 09:30N 41°14' W 008°50'21415.5
2017-Oct-14 19:44N 44°48' W 008°57'1817.7
2017-Oct-14 18:43N 45°05' W 008°46'418.1
2017-Oct-14 18:31N 45°08' W 008°44'19017.4
2017-Oct-14 07:35N 47°56' W 006°34'716.9
2017-Oct-14 07:09N 48°02' W 006°28'317.3
2017-Oct-14 07:00N 48°05' W 006°27'1017.5
2017-Oct-14 06:26N 48°13' W 006°20'1017.5
2017-Oct-14 05:53N 48°21' W 006°12'1017.6
2017-Oct-14 05:18N 48°30' W 006°05'2517.9
2017-Oct-14 03:56N 48°53' W 005°49'716.7
2017-Oct-14 03:30N 48°57' W 005°41'917.3
2017-Oct-14 02:59N 49°01' W 005°28'1017.2
2017-Oct-14 02:25N 49°06' W 005°16'717.2
2017-Oct-14 02:00N 49°10' W 005°06'1716.7
2017-Oct-14 00:57N 49°19' W 004°43'816.3
2017-Oct-14 00:26N 49°23' W 004°32'816.3
2017-Oct-13 23:56N 49°28' W 004°22'1016.0
2017-Oct-13 23:20N 49°33' W 004°09'516.2
2017-Oct-13 23:00N 49°36' W 004°02'816.2
2017-Oct-13 22:30N 49°39' W 003°51'816.7
2017-Oct-13 22:00N 49°44' W 003°40'917.3
2017-Oct-13 21:30N 49°48' W 003°28'917.7
2017-Oct-13 21:00N 49°52' W 003°16'918.1
2017-Oct-13 20:30N 49°56' W 003°04'918.6
2017-Oct-13 20:00N 50°00' W 002°51'1819.0
2017-Oct-13 19:05N 50°06' W 002°25'419.0
2017-Oct-13 18:51N 50°07' W 002°18'719.1
2017-Oct-13 18:29N 50°09' W 002°08'3218.0
2017-Oct-13 16:43N 50°17' W 001°20'417.1
2017-Oct-13 16:30N 50°18' W 001°14'816.4
2017-Oct-13 16:00N 50°20' W 001°02'915.9
2017-Oct-13 15:27N 50°23' W 000°49'715.4
2017-Oct-13 15:00N 50°24' W 000°38'815.6
2017-Oct-13 14:30N 50°25' W 000°26'815.8
2017-Oct-13 14:00N 50°27' W 000°14'815.8
2017-Oct-13 13:30N 50°28' W 000°01'816.0
2017-Oct-13 13:00N 50°30' E 000°11'816.3
2017-Oct-13 12:30N 50°32' E 000°23'816.9
2017-Oct-13 12:00N 50°35' E 000°36'917.2
2017-Oct-13 11:30N 50°40' E 000°46'917.5
2017-Oct-13 11:00N 50°46' E 000°57'1017.6
2017-Oct-13 10:28N 50°53' E 001°07'817.4
2017-Oct-13 10:00N 50°58' E 001°16'816.8
2017-Oct-13 09:30N 51°03' E 001°27'816.2
2017-Oct-13 09:00N 51°08' E 001°37'815.8
2017-Oct-13 08:30N 51°13' E 001°46'815.6
2017-Oct-13 08:00N 51°20' E 001°54'714.7
2017-Oct-13 07:30N 51°25' E 002°02'816.7
2017-Oct-13 07:00N 51°21' E 002°15'815.4
2017-Oct-13 06:30N 51°22' E 002°27'815.8
2017-Oct-13 06:00N 51°23' E 002°39'713.2
2017-Oct-13 05:30N 51°22' E 002°50'715.0
2017-Oct-13 05:00N 51°24' E 003°02'714.5
2017-Oct-13 04:30N 51°24' E 003°13'714.8
2017-Oct-13 04:00N 51°25' E 003°25'713.3
2017-Oct-13 03:30N 51°26' E 003°35'4 8.9
2017-Oct-13 03:00N 51°25' E 003°42'713.2
2017-Oct-13 02:30N 51°21' E 003°50'713.1
2017-Oct-13 02:00N 51°25' E 003°58'511.0
2017-Oct-13 01:31N 51°22' E 004°05'510.8
2017-Oct-13 01:00N 51°22' E 004°14'4 7.3
2017-Oct-13 00:29N 51°18' E 004°16'0 0.1
2017-Oct-12 23:59N 51°18' E 004°16'0 0.0
2017-Oct-12 23:29N 51°18' E 004°16'0 0.0
2017-Oct-12 22:53N 51°18' E 004°16'0 0.0
2017-Oct-12 22:29N 51°18' E 004°16'0 0.0
2017-Oct-12 21:59N 51°18' E 004°16'0 0.0
2017-Oct-12 21:29N 51°18' E 004°16'0 0.0
2017-Oct-12 20:59N 51°18' E 004°16'0 0.0
2017-Oct-12 20:26N 51°18' E 004°16'0 0.0
2017-Oct-12 19:59N 51°18' E 004°16'0 0.0
2017-Oct-12 19:29N 51°18' E 004°16'0 0.0
2017-Oct-12 18:59N 51°18' E 004°16'0 0.0
2017-Oct-12 18:26N 51°18' E 004°16'0 0.0
2017-Oct-12 17:59N 51°18' E 004°16'0 0.0
2017-Oct-12 17:29N 51°18' E 004°16'0 0.0
2017-Oct-12 16:59N 51°18' E 004°16'0 0.0
2017-Oct-12 16:29N 51°18' E 004°16'0 0.0
2017-Oct-12 15:56N 51°18' E 004°16'0 0.0
2017-Oct-12 15:29N 51°18' E 004°16'0 0.0
2017-Oct-12 14:59N 51°18' E 004°16'0 0.0
2017-Oct-12 14:29N 51°18' E 004°16'0 0.0
2017-Oct-12 13:59N 51°18' E 004°16'0 0.0
2017-Oct-12 13:29N 51°18' E 004°16'0 0.0
2017-Oct-12 12:56N 51°18' E 004°16'0 0.0
2017-Oct-12 12:29N 51°18' E 004°16'0 0.0
2017-Oct-12 11:59N 51°18' E 004°16'0 0.0
2017-Oct-12 11:31N 51°18' E 004°16'0 0.1
2017-Oct-12 11:00N 51°18' E 004°16'4 7.6
2017-Oct-12 10:30N 51°22' E 004°14'4 8.9
2017-Oct-12 10:00N 51°22' E 004°07'510.6
2017-Oct-12 09:30N 51°26' E 004°01'611.6
2017-Oct-12 09:00N 51°22' E 003°54'611.5
2017-Oct-12 08:30N 51°22' E 003°45'612.1
2017-Oct-12 08:01N 51°26' E 003°39'510.8
2017-Oct-12 07:31N 51°25' E 003°30'714.5
2017-Oct-12 07:00N 51°24' E 003°19'815.5
2017-Oct-12 06:30N 51°24' E 003°06'815.5
2017-Oct-12 06:00N 51°22' E 002°54'713.2
2017-Oct-12 05:29N 51°23' E 002°43'510.8
2017-Oct-12 05:00N 51°22' E 002°35'2 3.6
2017-Oct-12 04:30N 51°20' E 002°33'0 0.1
2017-Oct-12 03:48N 51°20' E 002°33'0 0.0
2017-Oct-12 03:30N 51°20' E 002°33'0 0.0
2017-Oct-12 03:00N 51°20' E 002°33'0 0.0
2017-Oct-12 02:26N 51°20' E 002°33'0 0.0
2017-Oct-12 01:53N 51°20' E 002°33'0 0.1
2017-Oct-12 01:29N 51°20' E 002°33'0 0.1
2017-Oct-12 00:51N 51°20' E 002°33'0 0.0
2017-Oct-12 00:26N 51°20' E 002°33'0 0.1
2017-Oct-11 23:38N 51°20' E 002°33'0 0.0
2017-Oct-11 23:14N 51°20' E 002°33'0 0.2
2017-Oct-11 22:59N 51°20' E 002°33'0 0.1
2017-Oct-11 22:29N 51°20' E 002°33'1 0.5
2017-Oct-11 21:16N 51°21' E 002°33'1 4.9
2017-Oct-11 21:00N 51°22' E 002°31'4 8.5
2017-Oct-11 20:30N 51°21' E 002°25'510.1
2017-Oct-11 20:00N 51°19' E 002°17'5 9.4
2017-Oct-11 19:30N 51°19' E 002°10'4 8.4
2017-Oct-11 19:00N 51°21' E 002°04'5 9.2
2017-Oct-11 18:30N 51°24' E 001°58'4 8.9
2017-Oct-11 18:00N 51°27' E 001°53'3 6.6
2017-Oct-11 17:30N 51°30' E 001°50'4 7.1
2017-Oct-11 17:00N 51°30' E 001°44'11 0.6
2017-Oct-11 00:00N 51°26' E 001°29'3 6.6
2017-Oct-10 23:30N 51°24' E 001°33'2 4.8
2017-Oct-10 23:00N 51°26' E 001°33'2 4.9
2017-Oct-10 22:30N 51°28' E 001°35'3 5.9
2017-Oct-10 22:00N 51°30' E 001°39'510.1
2017-Oct-10 21:30N 51°34' E 001°45'510.6
2017-Oct-10 21:00N 51°37' E 001°51'611.1
2017-Oct-10 20:30N 51°40' E 001°60'510.9
2017-Oct-10 20:00N 51°43' E 002°07'3510.8
2017-Oct-10 16:44N 52°01' E 002°55'311.0
2017-Oct-10 16:29N 52°02' E 002°60'510.9
2017-Oct-10 16:00N 52°02' E 003°08'510.8
2017-Oct-10 15:30N 52°03' E 003°17'510.5
2017-Oct-10 14:59N 52°03' E 003°26'1111.5
2017-Oct-10 14:00N 52°03' E 003°44'510.9
2017-Oct-10 13:30N 52°03' E 003°53'713.4
2017-Oct-10 13:00N 51°60' E 004°02'714.9
2017-Oct-10 12:30N 51°56' E 004°13'510.9
2017-Oct-10 12:00N 51°54' E 004°21'3 5.8
2017-Oct-10 11:29N 51°53' E 004°26'0 0.0
2017-Oct-10 10:59N 51°53' E 004°26'0 0.0
2017-Oct-10 10:29N 51°53' E 004°26'0 0.0
2017-Oct-10 09:59N 51°53' E 004°26'0 0.0
2017-Oct-10 09:29N 51°53' E 004°26'0 0.0
2017-Oct-10 08:59N 51°53' E 004°26'0 0.0
2017-Oct-10 08:29N 51°53' E 004°26'0 0.0
2017-Oct-10 07:59N 51°53' E 004°26'0 0.0
2017-Oct-10 07:29N 51°53' E 004°26'0 0.0
2017-Oct-10 06:59N 51°53' E 004°26'0 0.0
2017-Oct-10 06:29N 51°53' E 004°26'0 0.0
2017-Oct-10 05:59N 51°53' E 004°26'0 0.0
2017-Oct-10 05:29N 51°53' E 004°26'0 0.0
2017-Oct-10 04:59N 51°53' E 004°26'0 0.0
2017-Oct-10 04:29N 51°53' E 004°26'0 0.0
2017-Oct-10 03:59N 51°53' E 004°26'0 0.3
2017-Oct-10 03:28N 51°53' E 004°26'0 0.0
2017-Oct-10 02:58N 51°53' E 004°26'0 0.0
2017-Oct-10 02:28N 51°53' E 004°26'0 0.0
2017-Oct-10 01:58N 51°53' E 004°26'0 0.0
2017-Oct-10 01:30N 51°53' E 004°26'0 0.8
2017-Oct-10 01:00N 51°54' E 004°26'2 4.4
2017-Oct-10 00:30N 51°54' E 004°23'5 9.9
2017-Oct-10 00:00N 51°55' E 004°15'611.9
2017-Oct-09 23:30N 51°58' E 004°07'  

Dump ship's entire track history